createdAt,value
2024-03-26T00:02:17.437Z,100122.84
2024-03-26T00:04:49.790Z,100123.63
2024-03-26T00:07:24.603Z,100126.34
2024-03-26T00:09:58.768Z,100131.78
2024-03-26T00:12:32.909Z,100133.79
2024-03-26T00:15:06.239Z,100134.56
2024-03-26T00:17:40.190Z,100135.31
2024-03-26T00:20:14.919Z,100136.64
2024-03-26T00:22:47.156Z,100138.60
2024-03-26T00:25:21.925Z,100135.53
2024-03-26T00:28:05.692Z,100131.26
2024-03-26T00:30:38.278Z,100133.59
2024-03-26T00:33:11.306Z,100135.37
2024-03-26T00:35:44.427Z,100134.71
2024-03-26T00:38:17.882Z,100139.92
2024-03-26T00:40:50.352Z,100142.67
2024-03-26T00:43:28.429Z,100142.38
2024-03-26T00:46:02.529Z,100144.13
2024-03-26T00:48:36.272Z,100142.05
2024-03-26T00:51:10.666Z,100141.14
2024-03-26T00:53:43.981Z,100139.29
2024-03-26T00:56:17.500Z,100141.73
2024-03-26T00:58:52.920Z,100141.25
2024-03-26T01:01:28.597Z,100139.19
2024-03-26T01:04:02.516Z,100141.63
2024-03-26T01:06:35.172Z,100143.11
2024-03-26T01:09:09.187Z,100146.66
2024-03-26T01:11:42.612Z,100140.88
2024-03-26T01:14:18.126Z,100146.23
2024-03-26T01:16:50.426Z,100149.52
2024-03-26T01:19:25.615Z,100152.20
2024-03-26T01:22:01.819Z,100146.45
2024-03-26T01:24:37.516Z,100147.70
2024-03-26T01:27:11.746Z,100151.15
2024-03-26T01:29:45.688Z,100154.80
2024-03-26T01:32:18.677Z,100157.84
2024-03-26T01:34:55.298Z,100160.70
2024-03-26T01:37:28.339Z,100161.20
2024-03-26T01:40:00.929Z,100163.06
2024-03-26T01:42:35.795Z,100165.59
2024-03-26T01:45:11.690Z,100165.33
2024-03-26T01:47:45.845Z,100171.41
2024-03-26T01:50:20.010Z,100171.77
2024-03-26T01:52:54.701Z,100174.10
2024-03-26T01:55:29.473Z,100176.88
2024-03-26T01:58:05.363Z,100173.34
2024-03-26T02:00:39.675Z,100177.96
2024-03-26T02:03:10.966Z,100172.98
2024-03-26T02:05:42.946Z,100171.09
2024-03-26T02:11:44.954Z,100173.16
2024-03-26T02:14:19.152Z,100170.70
2024-03-26T02:16:50.435Z,100170.83
2024-03-26T02:19:36.740Z,100167.05
2024-03-26T02:22:24.361Z,100171.02
2024-03-26T02:24:57.361Z,100172.73
2024-03-26T02:27:30.489Z,100173.81
2024-03-26T02:30:03.976Z,100170.44
2024-03-26T02:32:37.185Z,100177.88
2024-03-26T02:35:16.980Z,100181.45
2024-03-26T02:37:51.441Z,100183.17
2024-03-26T02:40:25.662Z,100182.02
2024-03-26T02:42:59.749Z,100184.85
2024-03-26T02:45:35.535Z,100185.73
2024-03-26T02:48:10.307Z,100190.02
2024-03-26T02:50:43.271Z,100194.94
2024-03-26T02:53:16.617Z,100194.42
2024-03-26T02:55:49.927Z,100196.20
2024-03-26T02:58:22.895Z,100197.40
2024-03-26T03:01:06.250Z,100194.36
2024-03-26T03:03:41.470Z,100196.40
2024-03-26T03:06:15.514Z,100195.15
2024-03-26T03:08:48.981Z,100201.64
2024-03-26T03:11:23.898Z,100199.11
2024-03-26T03:13:57.485Z,100195.08
2024-03-26T03:16:30.582Z,100187.67
2024-03-26T03:19:03.828Z,100187.65
2024-03-26T03:21:37.466Z,100183.05
2024-03-26T03:24:11.098Z,100184.21
2024-03-26T03:26:45.459Z,100185.02
2024-03-26T03:29:18.550Z,100185.57
2024-03-26T03:31:52.446Z,100192.29
2024-03-26T03:34:25.548Z,100197.00
2024-03-26T03:36:58.689Z,100200.91
2024-03-26T03:39:34.976Z,100204.80
2024-03-26T03:42:09.077Z,100207.27
2024-03-26T03:44:42.680Z,100207.66
2024-03-26T03:47:16.914Z,100209.19
2024-03-26T03:49:51.039Z,100207.08
2024-03-26T03:52:25.162Z,100204.94
2024-03-26T03:54:57.966Z,100201.07
2024-03-26T03:57:34.165Z,100202.92
2024-03-26T04:00:12.082Z,100201.61
2024-03-26T04:02:47.051Z,100200.84
2024-03-26T04:05:20.957Z,100201.05
2024-03-26T04:07:54.659Z,100204.58
2024-03-26T04:10:30.424Z,100209.48
2024-03-26T04:13:03.516Z,100212.65
2024-03-26T04:15:42.543Z,100214.45
2024-03-26T04:18:16.037Z,100219.84
2024-03-26T04:20:50.472Z,100222.35
2024-03-26T04:23:44.778Z,100223.48
2024-03-26T04:26:18.541Z,100226.20
2024-03-26T04:28:54.107Z,100229.10
2024-03-26T04:31:26.471Z,100230.56
2024-03-26T04:34:00.206Z,100234.33
2024-03-26T04:36:36.421Z,100236.60
2024-03-26T04:39:12.490Z,100237.85
2024-03-26T04:41:47.067Z,100246.13
2024-03-26T04:44:18.860Z,100244.78
2024-03-26T04:46:52.338Z,100250.58
2024-03-26T04:49:26.628Z,100256.23
2024-03-26T04:51:59.723Z,100261.38
2024-03-26T04:54:36.419Z,100263.73
2024-03-26T04:57:09.042Z,100260.79
2024-03-26T04:59:42.978Z,100260.27
2024-03-26T05:02:15.958Z,100264.78
2024-03-26T05:04:49.884Z,100266.38
2024-03-26T05:07:23.334Z,100261.64
2024-03-26T05:09:56.023Z,100259.52
2024-03-26T05:12:32.217Z,100259.62
2024-03-26T05:15:08.565Z,100260.42
2024-03-26T05:17:41.301Z,100260.77
2024-03-26T05:20:15.773Z,100262.61
2024-03-26T05:22:48.241Z,100261.12
2024-03-26T05:25:22.004Z,100259.91
2024-03-26T05:27:56.223Z,100260.35
2024-03-26T05:30:29.623Z,100264.29
2024-03-26T05:33:02.167Z,100262.55
2024-03-26T05:35:36.836Z,100258.13
2024-03-26T05:38:11.389Z,100258.64
2024-03-26T05:40:48.123Z,100257.31
2024-03-26T05:43:22.884Z,100259.70
2024-03-26T05:45:56.230Z,100262.32
2024-03-26T05:48:30.322Z,100265.23
2024-03-26T05:51:02.736Z,100264.83
2024-03-26T05:53:36.794Z,100262.64
2024-03-26T05:56:10.116Z,100261.26
2024-03-26T05:58:44.047Z,100260.50
2024-03-26T06:01:16.331Z,100266.19
2024-03-26T06:03:51.614Z,100265.98
2024-03-26T06:06:25.351Z,100260.08
2024-03-26T06:08:58.382Z,100256.31
2024-03-26T06:11:33.015Z,100251.46
2024-03-26T06:14:06.403Z,100250.96
2024-03-26T06:16:40.396Z,100249.69
2024-03-26T06:19:14.157Z,100250.41
2024-03-26T06:21:47.527Z,100249.95
2024-03-26T06:24:22.106Z,100247.70
2024-03-26T06:26:56.248Z,100249.21
2024-03-26T06:29:29.936Z,100247.10
2024-03-26T06:32:05.201Z,100250.70
2024-03-26T06:34:40.230Z,100253.81
2024-03-26T06:37:14.531Z,100257.98
2024-03-26T06:39:49.026Z,100258.11
2024-03-26T06:42:24.854Z,100263.50
2024-03-26T06:44:59.787Z,100266.28
2024-03-26T06:47:32.451Z,100270.66
2024-03-26T06:50:05.819Z,100271.23
2024-03-26T06:52:39.143Z,100274.59
2024-03-26T06:55:18.216Z,100275.02
2024-03-26T06:57:52.255Z,100273.80
2024-03-26T07:00:29.008Z,100269.73
2024-03-26T07:03:05.671Z,100274.07
2024-03-26T07:05:46.794Z,100272.20
2024-03-26T07:08:25.316Z,100264.52
2024-03-26T07:10:58.604Z,100267.34
2024-03-26T07:13:32.218Z,100273.41
2024-03-26T07:16:05.563Z,100281.02
2024-03-26T07:18:39.222Z,100281.23
2024-03-26T07:21:11.655Z,100285.65
2024-03-26T07:23:48.839Z,100291.09
2024-03-26T07:26:23.704Z,100285.30
2024-03-26T07:28:57.591Z,100289.55
2024-03-26T07:31:43.998Z,100289.25
2024-03-26T07:34:29.778Z,100283.75
2024-03-26T07:37:02.229Z,100286.88
2024-03-26T07:39:38.684Z,100283.66
2024-03-26T07:42:12.200Z,100286.20
2024-03-26T07:44:45.662Z,100285.36
2024-03-26T07:47:20.779Z,100286.77
2024-03-26T07:49:54.583Z,100282.55
2024-03-26T07:52:29.652Z,100285.10
2024-03-26T07:55:04.090Z,100286.85
2024-03-26T07:57:40.884Z,100284.06
2024-03-26T08:00:18.447Z,100282.20
2024-03-26T08:02:54.903Z,100280.46
2024-03-26T08:05:30.825Z,100281.09
2024-03-26T08:08:05.677Z,100274.84
2024-03-26T08:10:45.165Z,100272.10
2024-03-26T08:13:23.467Z,100274.29
2024-03-26T08:15:56.846Z,100266.55
2024-03-26T08:18:34.953Z,100270.90
2024-03-26T08:21:09.727Z,100274.00
2024-03-26T08:23:42.653Z,100275.72
2024-03-26T08:26:15.790Z,100274.70
2024-03-26T08:28:48.453Z,100273.81
2024-03-26T08:31:23.591Z,100271.23
2024-03-26T08:33:57.042Z,100270.39
2024-03-26T08:36:30.979Z,100270.52
2024-03-26T08:39:11.529Z,100274.17
2024-03-26T08:41:45.883Z,100263.29
2024-03-26T08:44:20.354Z,100266.10
2024-03-26T08:46:59.986Z,100267.34
2024-03-26T08:49:34.616Z,100270.89
2024-03-26T08:52:14.539Z,100267.67
2024-03-26T08:54:48.987Z,100265.02
2024-03-26T08:57:31.439Z,100266.10
2024-03-26T09:00:12.026Z,100265.21
2024-03-26T09:02:45.608Z,100271.20
2024-03-26T09:05:18.919Z,100273.72
2024-03-26T09:07:51.943Z,100273.34
2024-03-26T09:10:25.879Z,100273.52
2024-03-26T09:13:00.494Z,100270.88
2024-03-26T09:15:37.567Z,100270.34
2024-03-26T09:18:11.279Z,100265.30
2024-03-26T09:20:45.887Z,100263.68
2024-03-26T09:23:22.786Z,100258.91
2024-03-26T09:26:02.558Z,100257.39
2024-03-26T09:28:51.837Z,100256.36
2024-03-26T09:31:27.972Z,100253.60
2024-03-26T09:34:04.559Z,100256.19
2024-03-26T09:36:41.317Z,100252.11
2024-03-26T09:39:15.533Z,100243.70
2024-03-26T09:41:54.045Z,100235.52
2024-03-26T09:44:29.937Z,100235.39
2024-03-26T09:47:09.054Z,100233.80
2024-03-26T09:49:43.417Z,100231.05
2024-03-26T09:52:20.264Z,100226.24
2024-03-26T09:54:58.935Z,100220.38
2024-03-26T09:57:33.203Z,100215.92
2024-03-26T10:00:05.687Z,100213.44
2024-03-26T10:02:40.843Z,100211.30
2024-03-26T10:05:18.058Z,100212.88
2024-03-26T10:07:51.567Z,100207.64
2024-03-26T10:10:26.689Z,100206.58
2024-03-26T10:13:11.767Z,100202.18
2024-03-26T10:15:47.637Z,100201.95
2024-03-26T10:18:36.321Z,100199.06
2024-03-26T10:21:16.744Z,100197.39
2024-03-26T10:23:50.160Z,100194.67
2024-03-26T10:26:26.454Z,100190.70
2024-03-26T10:29:00.731Z,100185.67
2024-03-26T10:31:36.626Z,100179.98
2024-03-26T10:34:11.103Z,100177.70
2024-03-26T10:36:46.212Z,100169.73
2024-03-26T10:39:21.417Z,100164.53
2024-03-26T10:41:57.603Z,100165.67
2024-03-26T10:44:32.492Z,100159.66
2024-03-26T10:47:11.635Z,100161.91
2024-03-26T10:49:45.374Z,100160.64
2024-03-26T10:52:20.903Z,100151.27
2024-03-26T10:55:01.433Z,100149.84
2024-03-26T10:57:36.173Z,100146.13
2024-03-26T11:00:15.417Z,100139.67
2024-03-26T11:02:54.985Z,100140.66
2024-03-26T11:05:29.165Z,100137.44
2024-03-26T11:08:07.661Z,100137.92
2024-03-26T11:11:01.215Z,100144.00
2024-03-26T11:13:36.501Z,100134.59
2024-03-26T11:16:10.958Z,100130.98
2024-03-26T11:18:46.079Z,100130.05
2024-03-26T11:21:20.697Z,100128.91
2024-03-26T11:23:57.995Z,100124.52
2024-03-26T11:26:31.271Z,100122.94
2024-03-26T11:29:10.785Z,100115.16
2024-03-26T11:31:46.400Z,100120.45
2024-03-26T11:34:22.636Z,100120.45
2024-03-26T11:36:58.955Z,100117.04
2024-03-26T11:39:34.950Z,100118.23
2024-03-26T11:42:08.228Z,100111.65
2024-03-26T11:44:41.159Z,100108.58
2024-03-26T11:47:15.734Z,100103.61
2024-03-26T11:49:51.234Z,100099.02
2024-03-26T11:52:27.265Z,100100.80
2024-03-26T11:55:02.938Z,100095.39
2024-03-26T11:57:39.418Z,100094.20
2024-03-26T12:00:18.844Z,100089.89
2024-03-26T12:02:53.378Z,100083.56
2024-03-26T12:05:26.920Z,100082.33
2024-03-26T12:08:02.346Z,100080.64
2024-03-26T12:10:36.241Z,100076.84
2024-03-26T12:13:10.261Z,100069.10
2024-03-26T12:15:45.354Z,100061.20
2024-03-26T12:18:20.591Z,100055.04
2024-03-26T12:21:00.595Z,100046.05
2024-03-26T12:23:34.770Z,100035.29
2024-03-26T12:26:10.123Z,100033.95
2024-03-26T12:28:44.832Z,100032.79
2024-03-26T12:31:19.546Z,100027.69
2024-03-26T12:34:00.347Z,100023.23
2024-03-26T12:36:34.179Z,100019.95
2024-03-26T12:39:11.226Z,100016.93
2024-03-26T12:41:44.078Z,100013.65
2024-03-26T12:44:19.923Z,100004.23
2024-03-26T12:46:56.580Z,99998.50
2024-03-26T12:49:32.060Z,99996.91
2024-03-26T12:52:06.090Z,99993.44
2024-03-26T12:54:40.688Z,99987.33
2024-03-26T12:57:15.372Z,99982.13
2024-03-26T12:59:49.408Z,99974.89
2024-03-26T13:02:24.074Z,99969.02
2024-03-26T13:04:59.079Z,99963.50
2024-03-26T13:07:33.351Z,99956.27
2024-03-26T13:10:08.366Z,99951.98
2024-03-26T13:12:43.899Z,99942.39
2024-03-26T13:15:18.737Z,99937.16
2024-03-26T13:17:52.813Z,99937.41
2024-03-26T13:20:28.095Z,99931.42
2024-03-26T13:23:01.690Z,99926.17
2024-03-26T13:25:36.851Z,99923.83
2024-03-26T13:28:11.171Z,99922.89
2024-03-26T13:30:46.175Z,99915.52
2024-03-26T13:33:18.639Z,99910.16
2024-03-26T13:35:51.651Z,99900.32
2024-03-26T13:38:25.344Z,99899.73
2024-03-26T13:41:00.189Z,99897.03
2024-03-26T13:43:34.787Z,99885.79
2024-03-26T13:46:09.808Z,99884.23
2024-03-26T13:48:43.302Z,99881.64
2024-03-26T13:51:18.393Z,99874.90
2024-03-26T13:53:50.111Z,99872.14
2024-03-26T13:56:24.143Z,99870.44
2024-03-26T13:58:57.293Z,99863.80
2024-03-26T14:01:33.919Z,99868.45
2024-03-26T14:04:08.529Z,99863.29
2024-03-26T14:06:41.796Z,99860.91
2024-03-26T14:09:15.057Z,99857.54
2024-03-26T14:11:48.846Z,99853.71
2024-03-26T14:14:23.861Z,99851.67
2024-03-26T14:16:58.478Z,99851.19
2024-03-26T14:19:32.682Z,99846.79
2024-03-26T14:22:06.253Z,99844.16
2024-03-26T14:24:41.797Z,99839.37
2024-03-26T14:27:16.568Z,99836.98
2024-03-26T14:29:50.387Z,99834.95
2024-03-26T14:32:25.286Z,99833.52
2024-03-26T14:35:00.379Z,99827.54
2024-03-26T14:37:34.075Z,99823.45
2024-03-26T14:40:11.479Z,99816.58
2024-03-26T14:42:45.888Z,99805.12
2024-03-26T14:45:19.218Z,99796.38
2024-03-26T14:48:10.896Z,99791.33
2024-03-26T14:50:53.055Z,99788.83
2024-03-26T14:53:27.016Z,99790.64
2024-03-26T14:56:02.407Z,99792.45
2024-03-26T14:58:35.505Z,99792.63
2024-03-26T15:01:10.836Z,99782.96
2024-03-26T15:03:45.422Z,99781.98
2024-03-26T15:06:20.278Z,99776.86
2024-03-26T15:08:55.186Z,99766.71
2024-03-26T15:11:29.541Z,99764.73
2024-03-26T15:14:03.191Z,99765.44
2024-03-26T15:16:36.883Z,99764.90
2024-03-26T15:19:10.958Z,99764.92
2024-03-26T15:21:45.403Z,99764.76
2024-03-26T15:24:18.759Z,99762.64
2024-03-26T15:27:11.365Z,99764.52
2024-03-26T15:30:02.733Z,99762.00
2024-03-26T15:32:35.758Z,99759.94
2024-03-26T15:35:11.882Z,99751.25
2024-03-26T15:37:45.883Z,99747.90
2024-03-26T15:40:20.003Z,99741.96
2024-03-26T15:42:55.687Z,99740.09
2024-03-26T15:45:29.188Z,99740.98
2024-03-26T15:48:04.692Z,99733.62
2024-03-26T15:50:38.268Z,99729.66
2024-03-26T15:53:15.012Z,99726.33
2024-03-26T15:55:52.919Z,99717.79
2024-03-26T15:58:29.871Z,99718.08
2024-03-26T16:01:05.131Z,99713.84
2024-03-26T16:03:54.153Z,99706.44
2024-03-26T16:06:25.553Z,99699.14
2024-03-26T16:08:58.004Z,99691.00
2024-03-26T16:11:32.364Z,99689.49
2024-03-26T16:14:05.695Z,99686.31
2024-03-26T16:16:39.324Z,99683.48
2024-03-26T16:19:14.571Z,99674.98
2024-03-26T16:21:49.933Z,99672.53
2024-03-26T16:24:26.406Z,99669.73
2024-03-26T16:27:02.104Z,99669.41
2024-03-26T16:29:36.673Z,99670.14
2024-03-26T16:32:14.023Z,99665.79
2024-03-26T16:34:54.707Z,99667.53
2024-03-26T16:37:31.627Z,99664.86
2024-03-26T16:40:08.222Z,99659.72
2024-03-26T16:42:41.825Z,99659.89
2024-03-26T16:45:15.878Z,99657.83
2024-03-26T16:47:50.496Z,99654.40
2024-03-26T16:50:26.791Z,99651.19
2024-03-26T16:53:02.239Z,99648.17
2024-03-26T16:55:35.564Z,99644.62
2024-03-26T16:58:10.756Z,99643.20
2024-03-26T17:00:49.415Z,99635.42
2024-03-26T17:03:23.298Z,99634.02
2024-03-26T17:05:57.467Z,99634.89
2024-03-26T17:08:30.473Z,99634.40
2024-03-26T17:11:05.174Z,99633.02
2024-03-26T17:13:41.744Z,99630.05
2024-03-26T17:16:17.368Z,99634.49
2024-03-26T17:18:51.024Z,99633.08
2024-03-26T17:21:25.629Z,99634.71
2024-03-26T17:23:58.723Z,99627.16
2024-03-26T17:26:37.259Z,99625.77
2024-03-26T17:29:14.341Z,99625.77
2024-03-26T17:31:50.338Z,99626.98
2024-03-26T17:34:28.839Z,99626.48
2024-03-26T17:37:12.797Z,99626.63
2024-03-26T17:39:46.705Z,99626.14
2024-03-26T17:42:19.990Z,99625.14
2024-03-26T17:44:53.701Z,99619.86
2024-03-26T17:47:26.605Z,99621.51
2024-03-26T17:50:14.951Z,99613.71
2024-03-26T17:52:48.494Z,99619.39
2024-03-26T17:55:22.854Z,99617.73
2024-03-26T17:57:57.745Z,99621.95
2024-03-26T18:00:31.734Z,99626.18
2024-03-26T18:03:04.583Z,99626.56
2024-03-26T18:05:41.736Z,99627.16
2024-03-26T18:08:15.420Z,99631.63
2024-03-26T18:10:56.473Z,99628.73
2024-03-26T18:13:30.900Z,99631.77
2024-03-26T18:16:09.359Z,99631.38
2024-03-26T18:18:41.947Z,99633.39
2024-03-26T18:21:15.880Z,99632.77
2024-03-26T18:23:48.210Z,99628.83
2024-03-26T18:26:22.114Z,99632.64
2024-03-26T18:29:00.156Z,99632.17
2024-03-26T18:31:33.658Z,99631.42
2024-03-26T18:34:08.187Z,99630.82
2024-03-26T18:36:42.772Z,99630.69
2024-03-26T18:39:14.534Z,99630.39
2024-03-26T18:41:49.153Z,99629.39
2024-03-26T18:44:23.880Z,99627.52
2024-03-26T18:46:56.149Z,99627.55
2024-03-26T18:49:28.553Z,99630.49
2024-03-26T18:52:06.914Z,99629.36
2024-03-26T18:54:44.582Z,99626.29
2024-03-26T18:57:22.436Z,99627.42
2024-03-26T19:00:01.180Z,99629.98
2024-03-26T19:02:34.665Z,99626.88
2024-03-26T19:05:29.152Z,99624.33
2024-03-26T19:08:07.445Z,99622.42
2024-03-26T19:10:44.227Z,99622.28
2024-03-26T19:13:17.947Z,99620.89
2024-03-26T19:15:55.928Z,99617.14
2024-03-26T19:18:29.867Z,99615.20
2024-03-26T19:21:04.783Z,99616.91
2024-03-26T19:23:37.131Z,99614.41
2024-03-26T19:26:12.379Z,99615.48
2024-03-26T19:28:46.546Z,99610.63
2024-03-26T19:31:23.532Z,99611.48
2024-03-26T19:34:01.665Z,99610.80
2024-03-26T19:36:35.022Z,99613.95
2024-03-26T19:39:11.768Z,99614.41
2024-03-26T19:41:46.680Z,99608.38
2024-03-26T19:44:28.171Z,99612.65
2024-03-26T19:47:06.556Z,99611.54
2024-03-26T19:49:40.980Z,99609.31
2024-03-26T19:52:15.762Z,99609.46
2024-03-26T19:54:48.982Z,99607.50
2024-03-26T19:57:22.594Z,99608.55
2024-03-26T19:59:57.840Z,99607.28
2024-03-26T20:02:32.954Z,99608.44
2024-03-26T20:05:09.072Z,99603.30
2024-03-26T20:07:43.242Z,99599.95
2024-03-26T20:10:16.986Z,99601.52
2024-03-26T20:12:50.156Z,99598.85
2024-03-26T20:15:23.975Z,99598.45
2024-03-26T20:17:57.243Z,99596.48
2024-03-26T20:20:30.259Z,99596.50
2024-03-26T20:23:03.973Z,99592.94
2024-03-26T20:25:38.580Z,99589.70
2024-03-26T20:28:13.838Z,99586.49
2024-03-26T20:30:47.804Z,99583.81
2024-03-26T20:33:24.580Z,99584.82
2024-03-26T20:35:58.439Z,99581.25
2024-03-26T20:38:32.824Z,99579.46
2024-03-26T20:41:09.003Z,99576.62
2024-03-26T20:43:44.795Z,99576.40
2024-03-26T20:46:17.662Z,99575.63
2024-03-26T20:48:51.157Z,99574.06
2024-03-26T20:51:29.445Z,99570.91
2024-03-26T20:54:02.366Z,99572.48
2024-03-26T20:56:36.468Z,99571.80
2024-03-26T20:59:10.505Z,99568.93
2024-03-26T21:01:43.789Z,99562.39
2024-03-26T21:04:16.496Z,99559.91
2024-03-26T21:06:51.187Z,99552.36
2024-03-26T21:09:25.041Z,99552.74
2024-03-26T21:11:58.250Z,99550.96
2024-03-26T21:14:30.540Z,99543.40
2024-03-26T21:17:10.127Z,99541.79
2024-03-26T21:19:47.271Z,99538.77
2024-03-26T21:22:21.300Z,99536.61
2024-03-26T21:25:13.801Z,99532.72
2024-03-26T21:27:48.687Z,99533.27
2024-03-26T21:30:24.933Z,99529.83
2024-03-26T21:33:03.952Z,99526.44
2024-03-26T21:35:43.428Z,99527.04
2024-03-26T21:38:23.567Z,99522.00
2024-03-26T21:41:15.956Z,99519.77
2024-03-26T21:43:48.572Z,99515.29
2024-03-26T21:46:21.210Z,99511.84
2024-03-26T21:48:54.563Z,99512.96
2024-03-26T21:51:29.663Z,99510.20
2024-03-26T21:54:05.930Z,99505.17
2024-03-26T21:56:45.971Z,99500.09
2024-03-26T21:59:19.019Z,99497.61
2024-03-26T22:01:51.684Z,99496.07
2024-03-26T22:04:26.180Z,99494.19
2024-03-26T22:07:00.013Z,99497.94
2024-03-26T22:09:33.965Z,99493.05
2024-03-26T22:12:07.708Z,99490.91
2024-03-26T22:14:41.969Z,99494.80
2024-03-26T22:17:15.088Z,99492.52
2024-03-26T22:19:53.954Z,99493.59
2024-03-26T22:22:27.768Z,99490.22
2024-03-26T22:25:03.706Z,99483.88
2024-03-26T22:27:37.957Z,99479.11
2024-03-26T22:30:16.813Z,99482.24
2024-03-26T22:32:52.187Z,99484.46
2024-03-26T22:35:25.481Z,99478.80
2024-03-26T22:38:01.162Z,99477.05
2024-03-26T22:40:37.907Z,99473.83
2024-03-26T22:43:11.692Z,99476.88
2024-03-26T22:45:45.485Z,99476.15
2024-03-26T22:48:19.682Z,99474.23
2024-03-26T22:50:53.519Z,99469.59
2024-03-26T22:53:26.793Z,99473.89
2024-03-26T22:56:03.494Z,99467.84
2024-03-26T22:58:38.843Z,99468.84
2024-03-26T23:01:20.060Z,99469.14
2024-03-26T23:03:52.964Z,99463.30
2024-03-26T23:06:28.159Z,99464.43
2024-03-26T23:09:02.666Z,99461.70
2024-03-26T23:11:36.650Z,99454.77
2024-03-26T23:14:10.740Z,99455.02
2024-03-26T23:16:45.403Z,99450.25
2024-03-26T23:19:19.236Z,99447.23
2024-03-26T23:21:51.240Z,99445.23
2024-03-26T23:24:24.899Z,99439.74
2024-03-26T23:26:58.340Z,99437.88
2024-03-26T23:29:30.817Z,99433.09
2024-03-26T23:32:05.090Z,99431.99
2024-03-26T23:34:38.873Z,99430.69
2024-03-26T23:37:13.540Z,99431.48
2024-03-26T23:39:46.465Z,99427.02
2024-03-26T23:42:20.917Z,99428.39
2024-03-26T23:44:56.069Z,99421.59
2024-03-26T23:47:29.332Z,99421.02
2024-03-26T23:50:04.062Z,99423.95
2024-03-26T23:52:39.178Z,99424.02
2024-03-26T23:55:13.011Z,99420.42
2024-03-26T23:57:47.393Z,99417.18
